map of NYO home
NYO - Airport
Location
City:  Stockholm, Södermanlands län, Sweden
Near (Alt.):Nykoping
Name:Skavsta AB
ICAO:ESKN
IATA:NYO

Details
Type:Airport (Aerodrome, Airfield)
Use:Public/Civil, Military
Latitude:58°47'19"N (58.788636)
Longitude:16°54'44"E (16.912189)
Datum:WGS 1984
Elevation:140 ft (43 m)
Variation:5.90°E (WMM2015v2 magnetic declination)
0.20° annual change
Runways:2
Longest:9442 × 148 ft (2878 × 45 m), paved

Time
Time Zone:UTC+1 (DST+2)
Local Time:

Weather
METAR:ESKN 041350Z 17006KT 9999 BKN004 M02/M02 Q1018 R26/910195
TAF:ESKN 041130Z 0412/0512 17004KT 9999 SCT009 BKN015
TEMPO 0412/0417 BKN009
BECMG 0417/0419 1400 SN VV009
TEMPO 0419/0423 6000 -SN BKN015
BECMG 0423/0501 9999 NSW BKN020
TEMPO 0501/0512 3000 -SN BKN009

Related Locations
Nearby:
Farthest:CHT: 11250 mi / 18105 km
Waitangi [Tuuta], CIT, NZ

Find:

   beyond  
but within

Other Information
Maps:
NOTAMs:
Links:
Sources:

  
  • flag of Sweden
  

Sectional Chart

Flight Planning
at skyvector.com

Satellite Image

Google Maps Satellite view

 

Copyright © 2004-2019 Karl L. Swartz. All rights reserved.
The Great Circle Mapper name and logo are trademarks of the Great Circle Mapper.
All other trademarks mentioned herein belong to their respective owners.
Please see credits for attibutions and further copyright information.

  Follow gcmap on Facebook Follow gcmap on Twitter GCmap on LinkedIn

hCard Microformat

Geo Microformat